Main page
METAR-TAF:

METAR-TAF

Airports :

Warton Aerodrome

Preston, England

latitude: 53-44-42N, longitude: 2-53-02W, elevation: 17 m

Current weather observation

The report was made 22 minutes ago, at 09:20 UTC
Wind 9 kt from the East
Temperature 5°C
Humidity 75%
Pressure 1005 hPa
Visibility 10 km or more
Broken clouds at a height of 2500 ft

METAR: EGNO 210920Z 10009KT 9999 BKN025 05/01 Q1005

Time: 09:42 (09:42 UTC)

Forecast

The report was made 1 hour and 36 minutes ago, at 08:06 UTC
Forecast valid from 21 at 09 UTC to 21 at 18 UTC
Wind 11 kt from the Southeast
Visibility 10 km or more
Few clouds at a height of 2000 ft
Probability 30% :
Temporary
from 21 at 09 UTC to 21 at 15 UTC
Wind 15 kt from the Southeast with gusts up to 25 kt

TAF: EGNO 210806Z 2109/2118 13011KT 9999 FEW020 PROB30 TEMPO 2109/2115 14015G25KT

Weather observations and forecasts of more than 4000 airports (METAR and TAF reports).

The available stations are represented by yellow and red dots on the map.

Hover mouse over dot to see the name of the station.

Then click to see weather observations and forecasts.

To change the map : click on the green buttons with a black cross to zoom in, on the green button with a dash to zoom out, or on the green arrows for adjacent maps.


METAR-TAF: